Williford, Arkansas
Current Conditions -  °F | °C
As of 8:55 PM on Wednesday 22 Oct 2014 (Local Time) from KARG Reporting Station
Clear Clear  
Wind Chill: 50°   Ceiling: Unl
Heat Index: 50°   Visibility: 7mi
Dew Point: 36°   Wind: 9mph
Humidity: 58%   Direction: 40°NE
Pressure: 30.19"   Gusts: NA
Location:  36.25°N, 91.36°W
Report Text: KARG 230155Z AUTO 04008KT 7SM CLR 10/02 A3019 RMK AO1
Loading
Personal Weather Stations






























Interactive Weather Map
Tropical Storm Tracking
New forecast layout! Learn more

10-Day Weather Forecast

Advertisements
Track Severe Weather on mobile